Time;durP1;ratioP1;P1;durP2;ratioP2;P2;SDS_P1;SDS_P2;PMS_P1;PMS_P2;Temp;Humidity;BMP_temperature;BMP_pressure;BME280_temperature;BME280_humidity;BME280_pressure;Samples;Min_cycle;Max_cycle;Signal;HPM_P1;HPM_P2
2021/03/19 00:02:50;;;;;;;3.57;2.47;;;19.90;48.40;;;;;;10416787;28;20206;-21
2021/03/19 00:08:12;;;;;;;2.60;2.40;;;19.90;48.40;;;;;;10416302;28;20256;-21
2021/03/19 00:13:35;;;;;;;3.03;2.30;;;19.90;48.40;;;;;;10417349;28;20205;-21
2021/03/19 00:18:56;;;;;;;3.00;2.43;;;19.90;48.40;;;;;;10415326;28;20216;-21
2021/03/19 00:24:18;;;;;;;3.57;2.50;;;19.90;48.40;;;;;;10416581;28;20197;-21
2021/03/19 00:29:40;;;;;;;3.30;2.70;;;19.80;48.40;;;;;;10414672;28;20605;-21
2021/03/19 00:35:03;;;;;;;2.43;2.20;;;19.80;48.40;;;;;;10414323;28;20565;-21
2021/03/19 00:40:24;;;;;;;3.27;2.20;;;19.90;48.30;;;;;;10416119;28;20588;-19
2021/03/19 00:45:47;;;;;;;3.13;1.87;;;19.90;48.40;;;;;;10374089;28;20211;-21
2021/03/19 00:51:09;;;;;;;2.77;2.20;;;19.80;48.30;;;;;;10414538;28;20264;-21
2021/03/19 00:56:30;;;;;;;2.93;1.90;;;19.80;49.00;;;;;;10415068;28;20675;-21
2021/03/19 01:01:53;;;;;;;2.97;2.13;;;19.80;48.30;;;;;;10415139;28;20194;-21
2021/03/19 01:07:15;;;;;;;2.13;1.93;;;19.80;48.30;;;;;;10414409;28;20279;-21
2021/03/19 01:12:36;;;;;;;2.37;2.00;;;19.80;49.00;;;;;;10410283;28;20740;-21
2021/03/19 01:17:59;;;;;;;1.97;1.77;;;19.80;48.40;;;;;;10414979;28;20209;-21
2021/03/19 01:23:21;;;;;;;2.27;2.07;;;19.80;48.40;;;;;;10412517;28;20234;-21
2021/03/19 01:28:43;;;;;;;1.80;1.70;;;19.80;48.40;;;;;;10412016;28;20227;-21
2021/03/19 01:34:06;;;;;;;2.40;1.87;;;19.80;48.30;;;;;;10412861;28;20550;-21
2021/03/19 01:39:27;;;;;;;2.93;2.27;;;19.80;48.40;;;;;;10413364;28;20210;-21
2021/03/19 01:45:31;;;;;;;1.93;1.60;;;19.80;48.40;;;;;;10412573;28;20669;-21
2021/03/19 01:51:30;;;;;;;2.00;1.80;;;19.80;48.30;;;;;;10411377;28;20222;-21
2021/03/19 01:57:29;;;;;;;2.20;1.87;;;19.80;48.30;;;;;;10412326;28;20200;-21
2021/03/19 02:03:28;;;;;;;2.00;1.80;;;19.70;48.20;;;;;;10412689;28;20197;-21
2021/03/19 02:09:27;;;;;;;2.27;1.90;;;19.70;48.20;;;;;;10412243;28;20709;-21
2021/03/19 02:15:26;;;;;;;1.83;1.43;;;19.70;48.30;;;;;;10405673;28;20735;-21
2021/03/19 02:21:25;;;;;;;2.00;1.70;;;19.70;48.20;;;;;;10411906;28;20217;-22
2021/03/19 02:27:24;;;;;;;1.90;1.70;;;19.70;48.20;;;;;;10410426;28;20221;-21
2021/03/19 02:32:46;;;;;;;2.00;1.60;;;19.70;48.40;;;;;;10369696;28;20256;-21
2021/03/19 02:38:08;;;;;;;1.40;1.30;;;19.70;48.40;;;;;;10373611;28;20272;-21
2021/03/19 02:43:29;;;;;;;1.60;1.47;;;19.70;48.30;;;;;;10410232;28;20197;-21
2021/03/19 02:48:52;;;;;;;2.33;1.70;;;19.70;48.30;;;;;;10411548;28;20710;-22
2021/03/19 02:54:13;;;;;;;1.70;1.60;;;19.60;48.90;;;;;;10411654;28;20207;-21
2021/03/19 02:59:35;;;;;;;2.20;1.60;;;19.60;48.30;;;;;;10410707;28;20222;-21
2021/03/19 03:04:57;;;;;;;2.60;1.50;;;19.60;48.30;;;;;;10410429;28;20744;-21
2021/03/19 03:10:21;;;;;;;1.40;1.30;;;19.60;48.20;;;;;;10405203;28;20217;-22
2021/03/19 03:15:43;;;;;;;1.90;1.37;;;19.60;48.20;;;;;;10410792;28;20719;-21
2021/03/19 03:21:05;;;;;;;1.77;1.40;;;19.60;48.30;;;;;;10410522;28;20221;-22
2021/03/19 03:26:27;;;;;;;1.30;1.20;;;19.60;48.30;;;;;;10409176;28;20213;-21
2021/03/19 03:31:50;;;;;;;0.80;0.80;;;19.60;48.20;;;;;;10407650;28;20608;-22
2021/03/19 03:37:12;;;;;;;1.33;1.23;;;19.60;48.20;;;;;;10409891;28;20263;-22
2021/03/19 03:42:34;;;;;;;1.60;1.03;;;19.70;48.20;;;;;;10410187;28;20485;-22
2021/03/19 03:47:56;;;;;;;1.43;1.30;;;19.60;48.20;;;;;;10409375;28;20570;-22
2021/03/19 03:53:19;;;;;;;1.63;1.20;;;19.60;48.30;;;;;;10374141;28;20196;-22
2021/03/19 03:58:41;;;;;;;1.47;1.30;;;19.60;48.20;;;;;;10420938;23;20232;-24
2021/03/19 04:04:03;;;;;;;3.00;1.10;;;19.60;48.10;;;;;;10457191;28;20227;-23
2021/03/19 04:09:26;;;;;;;1.90;1.10;;;19.60;48.10;;;;;;10459979;28;20291;-22
2021/03/19 04:14:47;;;;;;;1.30;1.20;;;19.60;48.20;;;;;;10496165;28;20553;-25
2021/03/19 04:20:11;;;;;;;1.33;1.20;;;19.60;48.20;;;;;;10483176;28;20220;-23
2021/03/19 04:25:34;;;;;;;1.20;1.10;;;19.60;48.10;;;;;;10472729;28;20217;-22
2021/03/19 04:30:55;;;;;;;1.13;1.03;;;19.60;48.10;;;;;;10496109;28;20222;-25
2021/03/19 04:36:40;;;;;;;1.33;1.00;;;19.60;48.20;;;;;;10498826;28;20193;-23
2021/03/19 04:42:03;;;;;;;1.13;1.00;;;19.60;48.10;;;;;;10438290;28;20216;-23
2021/03/19 04:47:25;;;;;;;1.53;0.97;;;19.60;48.00;;;;;;10498197;28;20217;-19
2021/03/19 04:52:46;;;;;;;1.77;1.30;;;19.70;47.90;;;;;;10492208;28;20202;-23
2021/03/19 04:58:09;;;;;;;2.03;1.20;;;19.70;47.70;;;;;;10459353;28;20683;-22
2021/03/19 05:03:32;;;;;;;1.53;1.00;;;19.80;47.70;;;;;;10454879;28;20259;-22
2021/03/19 05:08:53;;;;;;;0.73;0.73;;;19.80;47.60;;;;;;10462332;28;20312;-22
2021/03/19 05:14:17;;;;;;;1.53;1.07;;;19.80;47.60;;;;;;10451590;28;20201;-22
2021/03/19 05:19:39;;;;;;;1.53;1.00;;;19.90;47.50;;;;;;10453675;28;20251;-22
2021/03/19 05:25:01;;;;;;;1.20;1.00;;;19.90;47.50;;;;;;10458193;28;20201;-22
2021/03/19 05:30:25;;;;;;;1.13;1.03;;;19.90;47.50;;;;;;10464579;28;20221;-22
2021/03/19 05:35:47;;;;;;;1.10;1.00;;;19.90;47.30;;;;;;10455062;28;20191;-22
2021/03/19 05:41:09;;;;;;;1.80;1.00;;;19.90;47.30;;;;;;10458539;28;20224;-22
2021/03/19 05:46:34;;;;;;;1.30;1.10;;;19.90;47.40;;;;;;10476187;28;20220;-22
2021/03/19 05:51:58;;;;;;;1.00;0.90;;;19.90;47.40;;;;;;10476643;28;20231;-22
2021/03/19 05:57:23;;;;;;;1.33;0.87;;;19.90;47.40;;;;;;10463915;28;20201;-22
2021/03/19 06:02:46;;;;;;;1.23;0.97;;;19.90;47.30;;;;;;10453238;28;20193;-25
2021/03/19 06:08:09;;;;;;;1.57;1.10;;;19.90;47.30;;;;;;10452733;28;20218;-23
2021/03/19 06:13:43;;;;;;;1.03;0.80;;;19.90;47.20;;;;;;10444855;28;20254;-22
2021/03/19 06:19:26;;;;;;;1.07;0.97;;;19.90;47.40;;;;;;10443163;28;20699;-22
2021/03/19 06:24:55;;;;;;;1.17;1.07;;;19.90;47.30;;;;;;10453200;28;20192;-22
2021/03/19 06:30:24;;;;;;;0.87;0.87;;;19.90;47.20;;;;;;10452885;28;20214;-22
2021/03/19 06:35:48;;;;;;;1.20;1.07;;;20.00;47.20;;;;;;10460971;28;20197;-24
2021/03/19 06:41:32;;;;;;;1.77;0.83;;;19.90;47.20;;;;;;10454257;28;20625;-22
2021/03/19 06:46:57;;;;;;;1.47;0.90;;;19.90;47.10;;;;;;10476122;28;20586;-22
2021/03/19 06:52:27;;;;;;;1.67;1.03;;;20.10;47.30;;;;;;10465777;28;20203;-22
2021/03/19 06:57:49;;;;;;;1.70;1.00;;;20.40;47.00;;;;;;10471895;28;20731;-22
2021/03/19 07:03:29;;;;;;;1.73;1.10;;;20.60;46.60;;;;;;10411525;28;20200;-22
2021/03/19 07:09:02;;;;;;;2.37;1.00;;;20.70;45.90;;;;;;10486903;28;20225;-22
2021/03/19 07:14:42;;;;;;;1.93;1.10;;;20.90;45.60;;;;;;10482090;28;20197;-22
2021/03/19 07:20:14;;;;;;;1.73;0.93;;;21.00;45.30;;;;;;10491785;28;20220;-22
2021/03/19 07:25:52;;;;;;;1.03;0.77;;;21.10;45.20;;;;;;10449919;28;20210;-23
2021/03/19 07:31:27;;;;;;;1.83;0.70;;;21.10;45.60;;;;;;10478920;28;20228;-22
2021/03/19 07:37:02;;;;;;;2.23;0.97;;;21.20;44.80;;;;;;10472069;28;20642;-22
2021/03/19 07:43:02;;;;;;;1.67;1.10;;;21.30;44.80;;;;;;10486294;28;20197;-25
2021/03/19 07:48:32;;;;;;;2.57;1.20;;;21.30;44.70;;;;;;10403162;28;20445;-22
2021/03/19 07:54:01;;;;;;;1.67;0.90;;;21.40;45.20;;;;;;10410782;28;20596;-25
2021/03/19 07:59:37;;;;;;;0.80;0.77;;;21.50;44.40;;;;;;10436853;28;20224;-23
2021/03/19 08:05:08;;;;;;;1.53;0.90;;;21.60;44.20;;;;;;10451472;28;20189;-19
2021/03/19 08:10:33;;;;;;;2.33;1.10;;;21.60;44.10;;;;;;10451398;28;20292;-22
2021/03/19 08:16:01;;;;;;;1.10;0.80;;;21.60;44.20;;;;;;10450698;28;20208;-22
2021/03/19 08:21:30;;;;;;;2.13;0.90;;;21.70;44.10;;;;;;10451039;28;20220;-22
2021/03/19 08:27:00;;;;;;;1.60;1.10;;;21.70;44.10;;;;;;10450888;28;20232;-23
2021/03/19 08:32:47;;;;;;;1.50;0.80;;;21.60;44.10;;;;;;10449726;28;20739;-21
2021/03/19 08:38:22;;;;;;;1.47;1.00;;;21.70;44.10;;;;;;10477172;28;20739;-22
2021/03/19 08:43:46;;;;;;;1.10;0.90;;;21.70;44.10;;;;;;10488408;28;20227;-22
2021/03/19 08:49:15;;;;;;;1.93;0.87;;;21.70;44.10;;;;;;10475650;28;20270;-22
2021/03/19 08:54:37;;;;;;;1.50;1.13;;;21.70;43.90;;;;;;10455179;28;20197;-19
2021/03/19 08:59:59;;;;;;;1.70;1.00;;;21.70;44.30;;;;;;10454881;28;20596;-22
2021/03/19 09:05:26;;;;;;;1.67;0.97;;;21.80;44.10;;;;;;10421040;28;20193;-24
2021/03/19 09:11:12;;;;;;;1.23;0.90;;;21.90;43.70;;;;;;10422702;28;20214;-22
2021/03/19 09:16:47;;;;;;;2.60;0.90;;;21.70;43.60;;;;;;10427682;28;20279;-21
2021/03/19 09:22:33;;;;;;;1.27;0.80;;;21.50;44.30;;;;;;10422837;28;20747;-19
2021/03/19 09:28:36;;;;;;;1.10;0.80;;;21.40;44.50;;;;;;10452948;28;20217;-19
2021/03/19 09:34:17;;;;;;;1.87;1.00;;;21.30;44.50;;;;;;10451957;28;20205;-22
2021/03/19 09:40:05;;;;;;;2.07;1.07;;;21.10;44.80;;;;;;10424083;28;20201;-23
2021/03/19 09:45:48;;;;;;;1.27;1.00;;;20.90;44.90;;;;;;10492340;28;20203;-20
2021/03/19 09:51:40;;;;;;;2.47;1.17;;;20.90;45.00;;;;;;10494745;28;20612;-19
2021/03/19 09:57:11;;;;;;;1.53;0.80;;;20.80;45.20;;;;;;10475075;28;20196;-22
2021/03/19 10:07:36;;;;;;;1.70;0.90;;;21.00;45.00;;;;;;10354981;28;20253;-22
2021/03/19 10:13:08;;;;;;;1.30;0.80;;;21.20;44.70;;;;;;10369004;28;20225;-21
2021/03/19 10:18:32;;;;;;;0.93;0.60;;;21.40;44.30;;;;;;10370631;28;20210;-21
2021/03/19 10:23:57;;;;;;;0.90;0.70;;;21.50;44.20;;;;;;10331081;28;20206;-21
2021/03/19 10:29:23;;;;;;;1.20;0.80;;;21.60;44.10;;;;;;10340241;28;20277;-22
2021/03/19 10:34:50;;;;;;;1.67;1.00;;;21.60;44.20;;;;;;10363155;28;20248;-21
2021/03/19 10:40:17;;;;;;;1.00;0.63;;;21.30;44.70;;;;;;10369247;28;20429;-21
2021/03/19 10:45:47;;;;;;;1.60;0.87;;;21.80;44.30;;;;;;10368717;28;20209;-21
2021/03/19 10:51:23;;;;;;;0.80;0.70;;;22.30;44.10;;;;;;10368098;28;20211;-22
2021/03/19 10:56:48;;;;;;;1.50;0.70;;;22.60;43.00;;;;;;10369114;28;20373;-22
2021/03/19 11:02:23;;;;;;;1.17;0.67;;;22.90;42.60;;;;;;10358820;28;20648;-22
2021/03/19 11:07:45;;;;;;;0.93;0.60;;;23.10;42.20;;;;;;10368600;28;20210;-22
2021/03/19 11:13:25;;;;;;;0.97;0.70;;;23.20;42.10;;;;;;10369125;28;20237;-22
2021/03/19 11:19:03;;;;;;;1.67;0.80;;;23.30;42.00;;;;;;10368765;28;20220;-21
2021/03/19 11:24:28;;;;;;;1.87;0.83;;;23.40;41.70;;;;;;10366746;28;20194;-22
2021/03/19 11:29:52;;;;;;;1.40;0.73;;;23.50;41.50;;;;;;10368123;28;20745;-23
2021/03/19 11:35:19;;;;;;;2.10;0.70;;;23.10;41.30;;;;;;10368414;28;20217;-23
2021/03/19 11:40:44;;;;;;;2.63;0.67;;;23.10;41.50;;;;;;10366709;28;20210;-22
2021/03/19 11:46:05;;;;;;;1.80;0.70;;;23.30;41.50;;;;;;10368532;28;20265;-22
2021/03/19 11:51:31;;;;;;;1.43;0.80;;;23.30;41.20;;;;;;10366904;28;20221;-22
2021/03/19 11:56:53;;;;;;;0.80;0.60;;;23.40;41.10;;;;;;10367045;28;20666;-22
2021/03/19 12:02:28;;;;;;;1.40;0.70;;;23.00;41.00;;;;;;10344374;28;20598;-22
2021/03/19 12:07:50;;;;;;;1.70;0.50;;;22.50;42.20;;;;;;10350720;28;20286;-22
2021/03/19 12:13:15;;;;;;;0.63;0.63;;;22.00;43.20;;;;;;10342769;28;20629;-22
2021/03/19 12:18:36;;;;;;;2.30;0.87;;;21.80;43.90;;;;;;10347905;28;20213;-22
2021/03/19 12:23:59;;;;;;;0.50;0.40;;;21.60;44.40;;;;;;10374549;28;20569;-22
2021/03/19 12:29:20;;;;;;;1.00;0.63;;;21.60;44.70;;;;;;10369741;28;20222;-22
2021/03/19 12:34:42;;;;;;;1.53;0.77;;;21.50;45.00;;;;;;10373540;28;20190;-22
2021/03/19 12:40:06;;;;;;;0.90;0.60;;;21.40;45.10;;;;;;10371278;28;20215;-21
2021/03/19 12:45:29;;;;;;;0.60;0.60;;;21.40;45.20;;;;;;10373899;28;20205;-22
2021/03/19 12:50:52;;;;;;;0.70;0.50;;;21.30;45.40;;;;;;10372184;28;20272;-22
2021/03/19 12:56:14;;;;;;;1.13;0.73;;;21.30;45.50;;;;;;10372941;28;20245;-22
2021/03/19 13:01:36;;;;;;;0.50;0.40;;;21.30;45.60;;;;;;10371451;28;20253;-22
2021/03/19 13:06:57;;;;;;;0.50;0.50;;;21.30;45.70;;;;;;10372508;28;20685;-22
2021/03/19 13:12:20;;;;;;;0.90;0.70;;;21.20;45.70;;;;;;10371148;28;20598;-23
2021/03/19 13:17:42;;;;;;;0.80;0.40;;;21.20;45.80;;;;;;10371574;28;20186;-23
2021/03/19 13:23:06;;;;;;;0.27;0.27;;;21.20;45.90;;;;;;10367214;28;20215;-23
2021/03/19 13:28:29;;;;;;;0.77;0.50;;;21.10;45.90;;;;;;10372853;28;20293;-23
2021/03/19 13:33:51;;;;;;;0.90;0.60;;;21.10;45.90;;;;;;10373417;28;20210;-23
2021/03/19 13:39:13;;;;;;;0.87;0.60;;;21.10;45.80;;;;;;10373100;28;20214;-23
2021/03/19 13:44:36;;;;;;;0.60;0.60;;;21.00;45.70;;;;;;10362619;28;20198;-23
2021/03/19 13:49:57;;;;;;;1.13;0.50;;;21.00;45.60;;;;;;10371475;28;20230;-23
2021/03/19 13:55:19;;;;;;;0.73;0.50;;;21.10;45.50;;;;;;10369629;28;20628;-23
2021/03/19 14:00:42;;;;;;;0.70;0.57;;;21.10;45.50;;;;;;10371017;28;20582;-23
2021/03/19 14:06:04;;;;;;;0.43;0.37;;;21.10;45.50;;;;;;10357324;28;20277;-24
2021/03/19 14:11:26;;;;;;;1.33;0.50;;;21.10;45.60;;;;;;10331383;28;20230;-24
2021/03/19 14:16:49;;;;;;;0.90;0.60;;;21.10;45.60;;;;;;10349017;28;20202;-24
2021/03/19 14:22:12;;;;;;;0.87;0.60;;;21.00;45.50;;;;;;10371148;28;20221;-24
2021/03/19 14:27:33;;;;;;;0.40;0.40;;;21.00;45.60;;;;;;10365526;28;20672;-23
2021/03/19 14:32:56;;;;;;;1.37;0.70;;;21.00;45.70;;;;;;10368467;28;20285;-23
2021/03/19 14:38:19;;;;;;;0.80;0.50;;;21.10;45.80;;;;;;10368332;28;20191;-23
2021/03/19 14:43:41;;;;;;;2.17;0.97;;;21.10;45.80;;;;;;10368699;28;20255;-23
2021/03/19 14:49:04;;;;;;;2.03;0.50;;;21.00;45.80;;;;;;10368486;28;20229;-24
2021/03/19 14:54:25;;;;;;;2.87;0.90;;;21.00;45.80;;;;;;10366942;28;20202;-23
2021/03/19 14:59:48;;;;;;;1.67;0.60;;;21.10;45.90;;;;;;10368553;28;20225;-23
2021/03/19 15:05:12;;;;;;;1.63;0.90;;;21.00;45.90;;;;;;10367974;28;20201;-23
2021/03/19 15:10:37;;;;;;;2.90;0.70;;;21.00;46.10;;;;;;10352480;28;20280;-23
2021/03/19 15:15:59;;;;;;;1.60;0.50;;;21.00;46.10;;;;;;10354654;28;20195;-23
2021/03/19 15:21:22;;;;;;;3.00;0.80;;;21.10;46.20;;;;;;10354945;28;20268;-23
2021/03/19 15:26:44;;;;;;;0.40;0.40;;;21.10;46.30;;;;;;10367657;28;20233;-23
2021/03/19 15:32:06;;;;;;;1.90;0.50;;;21.00;46.40;;;;;;10346058;28;20694;-23
2021/03/19 15:37:28;;;;;;;0.97;0.60;;;21.10;46.40;;;;;;10352754;28;20190;-23
2021/03/19 15:42:50;;;;;;;1.57;0.60;;;21.10;46.40;;;;;;10366435;28;20637;-23
2021/03/19 15:48:13;;;;;;;1.50;0.50;;;21.10;46.50;;;;;;10370192;28;20276;-23
2021/03/19 15:53:38;;;;;;;1.13;0.60;;;21.10;46.60;;;;;;10375660;28;20191;-23
2021/03/19 16:04:09;;;;;;;2.33;0.90;;;21.10;46.60;;;;;;10361146;28;20811;-22
2021/03/19 16:09:32;;;;;;;2.47;0.60;;;21.10;46.70;;;;;;10373775;28;20226;-22
2021/03/19 16:14:53;;;;;;;1.10;0.70;;;21.00;46.60;;;;;;10375853;28;20577;-22
2021/03/19 16:20:17;;;;;;;3.63;0.80;;;21.10;46.70;;;;;;10333600;28;20230;-21
2021/03/19 16:25:40;;;;;;;1.07;0.83;;;21.10;46.40;;;;;;10334227;28;20203;-21
2021/03/19 16:31:03;;;;;;;1.33;0.70;;;21.10;46.40;;;;;;10379825;28;20214;-21
2021/03/19 16:36:25;;;;;;;1.00;0.77;;;21.10;46.40;;;;;;10376537;28;20194;-21
2021/03/19 16:41:47;;;;;;;2.40;1.30;;;21.10;46.50;;;;;;10377446;28;20217;-21
2021/03/19 16:47:09;;;;;;;6.23;1.57;;;21.10;46.50;;;;;;10367310;28;20210;-22
2021/03/19 16:52:31;;;;;;;3.80;1.20;;;21.00;46.80;;;;;;10331950;28;20230;-21
2021/03/19 16:57:53;;;;;;;2.77;1.33;;;21.00;47.10;;;;;;10339041;28;20203;-21
2021/03/19 17:03:17;;;;;;;3.03;0.80;;;21.00;46.90;;;;;;10331484;28;20231;-21
2021/03/19 17:08:38;;;;;;;2.23;1.13;;;21.00;46.90;;;;;;10332535;28;20725;-21
2021/03/19 17:14:01;;;;;;;3.43;1.10;;;21.10;46.60;;;;;;10333994;28;20261;-21
2021/03/19 17:19:22;;;;;;;2.50;0.97;;;21.20;46.50;;;;;;10378928;28;20674;-22
2021/03/19 17:24:44;;;;;;;3.03;0.97;;;21.30;46.50;;;;;;10369525;28;20209;-21
2021/03/19 17:30:08;;;;;;;1.73;0.80;;;21.30;46.70;;;;;;10366427;28;20222;-22
2021/03/19 17:35:34;;;;;;;1.50;0.80;;;21.40;46.80;;;;;;10364234;28;20610;-21
2021/03/19 17:40:58;;;;;;;0.83;0.63;;;21.40;47.10;;;;;;10357951;28;20225;-21
2021/03/19 17:46:22;;;;;;;4.53;1.23;;;21.40;47.30;;;;;;10382187;28;20255;-21
2021/03/19 17:51:44;;;;;;;6.63;1.13;;;21.20;44.20;;;;;;10369442;28;20218;-19
2021/03/19 17:57:06;;;;;;;2.80;1.20;;;21.20;40.90;;;;;;10371162;28;20195;-24
2021/03/19 18:02:28;;;;;;;1.70;0.80;;;21.10;39.20;;;;;;10331457;28;20238;-22
2021/03/19 18:07:50;;;;;;;1.37;0.90;;;21.00;38.40;;;;;;10331337;28;20309;-21
2021/03/19 18:13:13;;;;;;;1.70;0.90;;;20.90;37.20;;;;;;10376628;28;20716;-22
2021/03/19 18:18:38;;;;;;;2.83;0.80;;;21.10;38.30;;;;;;10370413;28;20201;-21
2021/03/19 18:24:00;;;;;;;1.70;0.90;;;21.30;37.70;;;;;;10340173;28;20308;-21
2021/03/19 18:29:21;;;;;;;0.87;0.60;;;21.50;37.00;;;;;;10327739;28;20680;-22
2021/03/19 18:34:45;;;;;;;2.23;0.80;;;21.70;36.20;;;;;;10337821;28;20195;-21
2021/03/19 18:40:09;;;;;;;2.03;0.90;;;21.70;35.50;;;;;;10379872;28;20222;-21
2021/03/19 18:45:32;;;;;;;1.50;0.80;;;21.70;35.20;;;;;;10359411;28;20248;-21
2021/03/19 18:50:54;;;;;;;2.50;1.00;;;21.80;35.10;;;;;;10392900;28;20218;-21
2021/03/19 18:56:17;;;;;;;0.97;0.80;;;21.90;34.30;;;;;;10377732;28;20217;-22
2021/03/19 19:01:38;;;;;;;1.57;0.87;;;22.00;34.40;;;;;;10373038;28;20289;-23
2021/03/19 19:07:01;;;;;;;1.10;0.90;;;22.00;33.90;;;;;;10327897;28;20227;-21
2021/03/19 19:12:22;;;;;;;2.33;0.77;;;21.90;32.90;;;;;;10328379;28;20246;-21
2021/03/19 19:17:44;;;;;;;1.40;1.10;;;21.80;31.40;;;;;;10354631;28;20226;-20
2021/03/19 19:23:07;;;;;;;2.80;1.20;;;21.60;31.30;;;;;;10331902;28;20694;-23
2021/03/19 19:28:31;;;;;;;2.47;0.80;;;21.70;31.70;;;;;;10337273;28;20234;-21
2021/03/19 19:33:53;;;;;;;4.40;0.90;;;21.70;31.70;;;;;;10336956;28;20242;-23
2021/03/19 19:39:15;;;;;;;3.17;0.83;;;21.80;33.20;;;;;;10338934;28;20199;-20
2021/03/19 19:44:37;;;;;;;3.83;1.07;;;21.90;34.90;;;;;;10340245;28;20207;-21
2021/03/19 19:49:58;;;;;;;4.00;0.70;;;22.00;36.50;;;;;;10334327;28;20266;-21
2021/03/19 19:55:22;;;;;;;1.00;0.67;;;22.00;37.10;;;;;;10347669;28;20460;-21
2021/03/19 20:00:44;;;;;;;2.13;1.03;;;22.10;37.70;;;;;;10371869;28;20218;-22
2021/03/19 20:06:06;;;;;;;2.20;1.20;;;22.20;38.20;;;;;;10374376;28;20198;-21
2021/03/19 20:11:29;;;;;;;2.20;0.90;;;22.30;38.70;;;;;;10355368;28;20767;-22
2021/03/19 20:16:51;;;;;;;3.60;1.03;;;22.10;38.80;;;;;;10333413;28;20202;-22
2021/03/19 20:22:12;;;;;;;4.60;1.00;;;21.90;39.10;;;;;;10330831;28;20219;-22
2021/03/19 20:27:35;;;;;;;1.47;0.93;;;21.70;39.60;;;;;;10334598;28;20214;-22
2021/03/19 20:32:56;;;;;;;1.50;0.80;;;21.70;40.10;;;;;;10334062;28;20215;-22
2021/03/19 20:38:18;;;;;;;1.73;1.10;;;21.80;39.80;;;;;;10337935;28;20198;-22
2021/03/19 20:43:41;;;;;;;2.90;1.00;;;22.00;39.50;;;;;;10340255;28;20563;-22
2021/03/19 20:49:04;;;;;;;2.40;0.90;;;22.10;39.50;;;;;;10334009;28;20219;-22
2021/03/19 20:54:28;;;;;;;1.20;1.10;;;22.20;39.40;;;;;;10342617;28;20203;-22
2021/03/19 20:59:51;;;;;;;1.80;0.90;;;22.20;39.30;;;;;;10374381;28;20226;-22
2021/03/19 21:05:13;;;;;;;1.03;0.80;;;22.30;39.30;;;;;;10374721;28;20198;-22
2021/03/19 21:10:35;;;;;;;0.60;0.57;;;22.30;39.30;;;;;;10373743;28;20246;-22
2021/03/19 21:15:57;;;;;;;1.40;1.10;;;22.40;39.40;;;;;;10365512;28;20693;-22
2021/03/19 21:21:19;;;;;;;1.23;0.70;;;22.40;39.40;;;;;;10367065;28;20218;-22
2021/03/19 21:26:42;;;;;;;2.77;0.97;;;22.40;39.40;;;;;;10372715;28;20633;-22
2021/03/19 21:32:06;;;;;;;1.20;0.90;;;22.20;40.00;;;;;;10373077;28;20230;-22
2021/03/19 21:37:27;;;;;;;1.77;1.03;;;22.30;40.00;;;;;;10372821;28;20201;-22
2021/03/19 21:42:49;;;;;;;1.00;0.70;;;22.30;40.10;;;;;;10360373;28;20249;-22
2021/03/19 21:48:14;;;;;;;2.97;0.83;;;22.20;40.20;;;;;;10373156;28;20302;-23
2021/03/19 21:53:36;;;;;;;1.10;0.80;;;22.20;40.50;;;;;;10372360;28;20227;-22
2021/03/19 21:58:57;;;;;;;1.33;0.73;;;22.10;40.70;;;;;;10372027;28;20195;-22
2021/03/19 22:04:21;;;;;;;1.10;0.50;;;22.00;40.80;;;;;;10495625;22;20239;-22
2021/03/19 22:09:42;;;;;;;1.63;0.80;;;22.00;40.80;;;;;;10491852;28;20678;-24
2021/03/19 22:15:06;;;;;;;0.97;0.80;;;21.80;40.80;;;;;;10445600;28;20201;-22
2021/03/19 22:20:31;;;;;;;1.53;0.90;;;21.60;41.10;;;;;;10412847;28;20226;-21
2021/03/19 22:25:53;;;;;;;1.13;0.80;;;21.50;41.60;;;;;;10411170;28;20193;-22
2021/03/19 22:31:15;;;;;;;1.83;1.00;;;21.40;41.70;;;;;;10411077;28;20209;-22
2021/03/19 22:36:37;;;;;;;1.30;0.90;;;21.20;41.90;;;;;;10411439;28;20221;-20
2021/03/19 22:41:59;;;;;;;1.43;1.03;;;21.20;42.20;;;;;;10430964;28;20286;-20
2021/03/19 22:47:21;;;;;;;0.60;0.60;;;21.00;42.30;;;;;;10411495;28;20197;-23
2021/03/19 22:52:43;;;;;;;0.97;0.80;;;21.00;42.50;;;;;;10411708;28;20210;-21
2021/03/19 22:58:07;;;;;;;1.10;0.73;;;20.90;42.50;;;;;;10410713;28;20248;-22
2021/03/19 23:03:33;;;;;;;0.97;0.77;;;20.90;42.60;;;;;;10429499;28;20240;-22
2021/03/19 23:08:56;;;;;;;2.37;1.07;;;20.90;42.70;;;;;;10451711;28;20193;-22
2021/03/19 23:14:17;;;;;;;3.90;0.70;;;20.80;42.80;;;;;;10450861;28;20252;-22
2021/03/19 23:19:39;;;;;;;1.00;0.80;;;20.80;43.10;;;;;;10450641;28;20224;-22
2021/03/19 23:25:01;;;;;;;1.00;0.90;;;20.70;42.90;;;;;;10451397;28;20220;-22
2021/03/19 23:30:34;;;;;;;2.13;0.90;;;20.70;43.00;;;;;;10450737;28;20209;-22
2021/03/19 23:35:56;;;;;;;1.90;0.80;;;20.70;43.00;;;;;;10450731;28;20194;-21
2021/03/19 23:41:22;;;;;;;0.77;0.60;;;20.70;43.10;;;;;;10450348;28;20235;-22
2021/03/19 23:46:45;;;;;;;1.73;0.80;;;20.70;43.20;;;;;;10451023;28;20271;-22
2021/03/19 23:52:07;;;;;;;1.23;0.70;;;20.60;43.50;;;;;;10450375;28;20213;-22
2021/03/19 23:57:29;;;;;;;1.13;0.90;;;20.60;43.30;;;;;;10450381;28;20228;-21
